KIRS/IRS METAR and TAF weather

Enter ICAO airport designator
Station Type Date Time Source
KIRS METAR 2021/04/18 02:55 UTC NOAA

KIRS 180255Z AUTO 00000KT 10SM CLR 05/M02 A2992 RMK AO2 T00541022


Station Type Date Time Source
KIRS Decoded METAR 2021/04/18 02:55 UTC NOAA

Sturgis, Kirsch Municipal Airport, MI, United States (KIRS) 41-48-46N 085-26-21W
Apr 17, 2021 - 10:55 PM EDT / 2021.04.18 0255 UTC
Wind: Calm:0
Visibility: 10 mile(s):0
Sky conditions: clear
Temperature: 41.7 F (5.4 C)
Dew Point: 28.0 F (-2.2 C)
Relative Humidity: 57%
Pressure (altimeter): 29.92 in. Hg (1013 hPa)
ob: KIRS 180255Z AUTO 00000KT 10SM CLR 05/M02 A2992 RMK AO2 T00541022
cycle: 3

Station Type Date Time Source
KIRS TAF UTC NOAA

Error!

Example: see airport list